JA96KM RPVB-RPVZ
Flight info
| Callsign | JA96KM |
|---|---|
| Flight time | 0h 51m |
| Altitude | 5500 |
| Route | VFR |
| Aircraft | DA40/L-SDFGRY/LB1 |
Departure
| Time | 2026-05-07 03:20 |
|---|---|
| Airport | Bacolod-Silay International Airport (RPVB) |
Arrival
| Time | 2026-05-07 04:12 |
|---|---|
| Airport | Siquijor Airport (RPVZ) |
| Time | Latitude | Longitude | Altitude | Speed | Heading |
|---|---|---|---|---|---|
| 2026-05-07 03:03 | 10.77306 | 123.01391 | 80 ft | 0 kts | 29° |
| 2026-05-07 03:14 | 10.77307 | 123.01393 | 83 ft | 2 kts | 56° |
| 2026-05-07 03:14 | 10.77298 | 123.01403 | 83 ft | 4 kts | 143° |
| 2026-05-07 03:14 | 10.77300 | 123.01416 | 80 ft | 0 kts | 28° |
| 2026-05-07 03:16 | 10.77308 | 123.01421 | 78 ft | 4 kts | 34° |
| 2026-05-07 03:16 | 10.77315 | 123.01448 | 80 ft | 6 kts | 81° |
| 2026-05-07 03:16 | 10.77351 | 123.01477 | 82 ft | 5 kts | 31° |
| 2026-05-07 03:16 | 10.77374 | 123.01498 | 88 ft | 5 kts | 77° |
| 2026-05-07 03:17 | 10.77352 | 123.01540 | 87 ft | 10 kts | 119° |
| 2026-05-07 03:17 | 10.77315 | 123.01603 | 88 ft | 11 kts | 120° |
| 2026-05-07 03:17 | 10.77249 | 123.01659 | 87 ft | 15 kts | 181° |
| 2026-05-07 03:17 | 10.77149 | 123.01608 | 88 ft | 18 kts | 209° |
| 2026-05-07 03:18 | 10.77040 | 123.01544 | 89 ft | 18 kts | 210° |
| 2026-05-07 03:18 | 10.76948 | 123.01472 | 89 ft | 16 kts | 243° |
| 2026-05-07 03:18 | 10.76915 | 123.01469 | 89 ft | 6 kts | 30° |
| 2026-05-07 03:18 | 10.76934 | 123.01479 | 89 ft | 16 kts | 28° |
| 2026-05-07 03:19 | 10.77164 | 123.01614 | 90 ft | 57 kts | 32° |
| 2026-05-07 03:19 | 10.77539 | 123.01837 | 205 ft | 69 kts | 29° |
| 2026-05-07 03:19 | 10.78007 | 123.02084 | 302 ft | 81 kts | 25° |
| 2026-05-07 03:19 | 10.78511 | 123.02366 | 422 ft | 85 kts | 30° |
| 2026-05-07 03:20 | 10.78988 | 123.02683 | 562 ft | 80 kts | 49° |
| 2026-05-07 03:20 | 10.79131 | 123.03233 | 609 ft | 90 kts | 91° |
| 2026-05-07 03:20 | 10.78779 | 123.03794 | 768 ft | 103 kts | 136° |
| 2026-05-07 03:20 | 10.78065 | 123.03979 | 936 ft | 114 kts | 177° |
| 2026-05-07 03:21 | 10.77269 | 123.03766 | 1095 ft | 120 kts | 191° |
| 2026-05-07 03:21 | 10.76476 | 123.03492 | 1239 ft | 121 kts | 191° |
| 2026-05-07 03:21 | 10.75671 | 123.03211 | 1418 ft | 124 kts | 193° |
| 2026-05-07 03:21 | 10.74843 | 123.02942 | 1590 ft | 125 kts | 192° |
| 2026-05-07 03:22 | 10.74008 | 123.02681 | 1681 ft | 127 kts | 193° |
| 2026-05-07 03:22 | 10.73132 | 123.02480 | 1888 ft | 125 kts | 190° |
| 2026-05-07 03:22 | 10.72306 | 123.02266 | 2068 ft | 122 kts | 189° |
| 2026-05-07 03:22 | 10.71483 | 123.02069 | 2211 ft | 120 kts | 188° |
| 2026-05-07 03:23 | 10.70668 | 123.01893 | 2375 ft | 120 kts | 188° |
| 2026-05-07 03:23 | 10.69859 | 123.01725 | 2500 ft | 118 kts | 188° |
| 2026-05-07 03:23 | 10.69052 | 123.01555 | 2570 ft | 118 kts | 187° |
| 2026-05-07 03:23 | 10.68228 | 123.01391 | 2637 ft | 123 kts | 188° |
| 2026-05-07 03:24 | 10.67389 | 123.01295 | 2747 ft | 119 kts | 174° |
| 2026-05-07 03:24 | 10.66552 | 123.01340 | 2808 ft | 121 kts | 170° |
| 2026-05-07 03:24 | 10.65714 | 123.01410 | 2885 ft | 121 kts | 169° |
| 2026-05-07 03:24 | 10.64871 | 123.01495 | 2957 ft | 122 kts | 171° |
| 2026-05-07 03:25 | 10.64025 | 123.01601 | 3028 ft | 123 kts | 168° |
| 2026-05-07 03:25 | 10.63177 | 123.01686 | 3101 ft | 123 kts | 169° |
| 2026-05-07 03:25 | 10.62319 | 123.01762 | 3172 ft | 124 kts | 170° |
| 2026-05-07 03:25 | 10.61449 | 123.01728 | 3239 ft | 127 kts | 186° |
| 2026-05-07 03:26 | 10.60585 | 123.01540 | 3313 ft | 127 kts | 189° |
| 2026-05-07 03:26 | 10.59732 | 123.01319 | 3384 ft | 126 kts | 190° |
| 2026-05-07 03:26 | 10.58877 | 123.01097 | 3452 ft | 127 kts | 191° |
| 2026-05-07 03:26 | 10.58026 | 123.00879 | 3525 ft | 128 kts | 191° |
| 2026-05-07 03:27 | 10.57163 | 123.00657 | 3599 ft | 129 kts | 191° |
| 2026-05-07 03:27 | 10.56298 | 123.00399 | 3666 ft | 130 kts | 195° |
| 2026-05-07 03:27 | 10.55441 | 123.00104 | 3743 ft | 130 kts | 196° |
| 2026-05-07 03:27 | 10.54589 | 122.99778 | 3811 ft | 131 kts | 197° |
| 2026-05-07 03:28 | 10.53738 | 122.99417 | 3888 ft | 134 kts | 199° |
| 2026-05-07 03:28 | 10.52886 | 122.99035 | 3955 ft | 134 kts | 200° |
| 2026-05-07 03:28 | 10.52042 | 122.98650 | 4025 ft | 132 kts | 199° |
| 2026-05-07 03:28 | 10.51214 | 122.98271 | 4093 ft | 129 kts | 199° |
| 2026-05-07 03:29 | 10.50392 | 122.97896 | 4169 ft | 131 kts | 200° |
| 2026-05-07 03:29 | 10.49564 | 122.97512 | 4239 ft | 131 kts | 200° |
| 2026-05-07 03:29 | 10.48737 | 122.97123 | 4312 ft | 131 kts | 200° |
| 2026-05-07 03:29 | 10.47910 | 122.96745 | 4392 ft | 130 kts | 199° |
| 2026-05-07 03:30 | 10.47083 | 122.96365 | 4463 ft | 130 kts | 200° |
| 2026-05-07 03:30 | 10.46247 | 122.95996 | 4504 ft | 134 kts | 200° |
| 2026-05-07 03:30 | 10.45369 | 122.95629 | 4501 ft | 138 kts | 197° |
| 2026-05-07 03:30 | 10.44465 | 122.95290 | 4505 ft | 139 kts | 194° |
| 2026-05-07 03:31 | 10.43551 | 122.94964 | 4506 ft | 139 kts | 194° |
| 2026-05-07 03:31 | 10.42634 | 122.94637 | 4508 ft | 140 kts | 194° |
| 2026-05-07 03:31 | 10.41716 | 122.94309 | 4502 ft | 140 kts | 194° |
| 2026-05-07 03:31 | 10.41415 | 122.94202 | 4502 ft | 141 kts | 194° |
| 2026-05-07 03:32 | 10.37088 | 122.93493 | 4496 ft | 136 kts | 178° |
| 2026-05-07 03:33 | 10.36015 | 122.93414 | 4499 ft | 136 kts | 177° |
| 2026-05-07 03:33 | 10.35085 | 122.93378 | 4511 ft | 135 kts | 173° |
| 2026-05-07 03:33 | 10.34165 | 122.93386 | 4614 ft | 131 kts | 173° |
| 2026-05-07 03:33 | 10.33252 | 122.93396 | 4704 ft | 128 kts | 172° |
| 2026-05-07 03:34 | 10.32373 | 122.93398 | 4802 ft | 125 kts | 172° |
| 2026-05-07 03:34 | 10.31519 | 122.93386 | 4894 ft | 124 kts | 173° |
| 2026-05-07 03:34 | 10.30663 | 122.93369 | 4992 ft | 122 kts | 172° |
| 2026-05-07 03:34 | 10.29806 | 122.93353 | 5085 ft | 123 kts | 172° |
| 2026-05-07 03:35 | 10.28954 | 122.93332 | 5181 ft | 122 kts | 173° |
| 2026-05-07 03:35 | 10.28100 | 122.93318 | 5279 ft | 124 kts | 172° |
| 2026-05-07 03:35 | 10.27238 | 122.93316 | 5375 ft | 124 kts | 172° |
| 2026-05-07 03:35 | 10.26374 | 122.93324 | 5471 ft | 123 kts | 171° |
| 2026-05-07 03:36 | 10.25500 | 122.93325 | 5493 ft | 128 kts | 172° |
| 2026-05-07 03:36 | 10.24900 | 122.93335 | 5495 ft | 131 kts | 171° |
| 2026-05-07 03:36 | 10.23982 | 122.93378 | 5491 ft | 132 kts | 167° |
| 2026-05-07 03:36 | 10.23067 | 122.93451 | 5496 ft | 132 kts | 167° |
| 2026-05-07 03:37 | 10.22142 | 122.93523 | 5497 ft | 134 kts | 167° |
| 2026-05-07 03:37 | 10.21203 | 122.93601 | 5498 ft | 137 kts | 167° |
| 2026-05-07 03:37 | 10.20252 | 122.93682 | 5497 ft | 137 kts | 167° |
| 2026-05-07 03:37 | 10.18996 | 122.93798 | 5491 ft | 136 kts | 167° |
| 2026-05-07 03:38 | 10.18061 | 122.93894 | 5492 ft | 134 kts | 166° |
| 2026-05-07 03:38 | 10.17432 | 122.93960 | 5492 ft | 135 kts | 167° |
| 2026-05-07 03:38 | 10.16515 | 122.94047 | 5490 ft | 133 kts | 167° |
| 2026-05-07 03:38 | 10.15605 | 122.94141 | 5492 ft | 131 kts | 167° |
| 2026-05-07 03:39 | 10.14700 | 122.94237 | 5492 ft | 130 kts | 167° |
| 2026-05-07 03:39 | 10.13792 | 122.94317 | 5495 ft | 132 kts | 166° |
| 2026-05-07 03:39 | 10.12870 | 122.94372 | 5497 ft | 133 kts | 167° |
| 2026-05-07 03:39 | 10.11944 | 122.94434 | 5498 ft | 134 kts | 167° |
| 2026-05-07 03:40 | 10.11013 | 122.94491 | 5503 ft | 134 kts | 168° |
| 2026-05-07 03:40 | 10.10086 | 122.94577 | 5505 ft | 134 kts | 167° |
| 2026-05-07 03:40 | 10.09161 | 122.94667 | 5501 ft | 133 kts | 167° |
| 2026-05-07 03:40 | 10.08237 | 122.94747 | 5498 ft | 134 kts | 167° |
| 2026-05-07 03:41 | 10.07314 | 122.94828 | 5498 ft | 132 kts | 167° |
| 2026-05-07 03:41 | 10.06392 | 122.94908 | 5504 ft | 134 kts | 167° |
| 2026-05-07 03:41 | 10.05458 | 122.94979 | 5501 ft | 135 kts | 167° |
| 2026-05-07 03:41 | 10.04524 | 122.95057 | 5501 ft | 134 kts | 167° |
| 2026-05-07 03:42 | 10.03599 | 122.95164 | 5499 ft | 134 kts | 166° |
| 2026-05-07 03:42 | 10.02670 | 122.95250 | 5501 ft | 135 kts | 167° |
| 2026-05-07 03:42 | 10.01738 | 122.95311 | 5506 ft | 134 kts | 167° |
| 2026-05-07 03:42 | 10.00808 | 122.95367 | 5496 ft | 135 kts | 167° |
| 2026-05-07 03:43 | 9.99922 | 122.95577 | 5498 ft | 128 kts | 149° |
| 2026-05-07 03:43 | 9.99104 | 122.95969 | 5498 ft | 129 kts | 145° |
| 2026-05-07 03:43 | 9.98307 | 122.96351 | 5496 ft | 128 kts | 147° |
| 2026-05-07 03:43 | 9.97507 | 122.96729 | 5497 ft | 126 kts | 146° |
| 2026-05-07 03:44 | 9.96721 | 122.97108 | 5492 ft | 122 kts | 141° |
| 2026-05-07 03:44 | 9.95917 | 122.97403 | 5490 ft | 123 kts | 154° |
| 2026-05-07 03:44 | 9.95106 | 122.97651 | 5496 ft | 121 kts | 154° |
| 2026-05-07 03:44 | 9.94296 | 122.97904 | 5495 ft | 123 kts | 153° |
| 2026-05-07 03:45 | 9.93476 | 122.98149 | 5493 ft | 123 kts | 153° |
| 2026-05-07 03:45 | 9.92652 | 122.98382 | 5496 ft | 123 kts | 154° |
| 2026-05-07 03:45 | 9.91825 | 122.98625 | 5496 ft | 124 kts | 155° |
| 2026-05-07 03:45 | 9.91006 | 122.98890 | 5495 ft | 124 kts | 154° |
| 2026-05-07 03:46 | 9.90190 | 122.99172 | 5497 ft | 124 kts | 154° |
| 2026-05-07 03:46 | 9.89398 | 122.99459 | 5496 ft | 115 kts | 153° |
| 2026-05-07 03:46 | 9.88630 | 122.99713 | 5502 ft | 118 kts | 154° |
| 2026-05-07 03:46 | 9.87845 | 122.99970 | 5506 ft | 120 kts | 153° |
| 2026-05-07 03:47 | 9.87049 | 123.00218 | 5495 ft | 118 kts | 154° |
| 2026-05-07 03:47 | 9.86275 | 123.00476 | 5502 ft | 118 kts | 153° |
| 2026-05-07 03:47 | 9.85500 | 123.00737 | 5503 ft | 120 kts | 152° |
| 2026-05-07 03:47 | 9.84676 | 123.00975 | 5502 ft | 125 kts | 154° |
| 2026-05-07 03:48 | 9.83831 | 123.01214 | 5501 ft | 127 kts | 154° |
| 2026-05-07 03:48 | 9.82986 | 123.01474 | 5503 ft | 127 kts | 154° |
| 2026-05-07 03:48 | 9.82140 | 123.01738 | 5506 ft | 128 kts | 154° |
| 2026-05-07 03:48 | 9.81284 | 123.01983 | 5505 ft | 128 kts | 154° |
| 2026-05-07 03:49 | 9.80438 | 123.02248 | 5503 ft | 127 kts | 154° |
| 2026-05-07 03:49 | 9.79599 | 123.02529 | 5501 ft | 126 kts | 151° |
| 2026-05-07 03:49 | 9.78778 | 123.02823 | 5499 ft | 124 kts | 150° |
| 2026-05-07 03:49 | 9.77982 | 123.03122 | 5496 ft | 120 kts | 151° |
| 2026-05-07 03:50 | 9.77207 | 123.03418 | 5500 ft | 120 kts | 150° |
| 2026-05-07 03:50 | 9.76420 | 123.03723 | 5472 ft | 124 kts | 151° |
| 2026-05-07 03:50 | 9.75622 | 123.04055 | 5394 ft | 123 kts | 148° |
| 2026-05-07 03:50 | 9.74857 | 123.04412 | 5327 ft | 121 kts | 146° |
| 2026-05-07 03:51 | 9.74089 | 123.04755 | 5255 ft | 120 kts | 146° |
| 2026-05-07 03:51 | 9.73322 | 123.05094 | 5164 ft | 118 kts | 148° |
| 2026-05-07 03:51 | 9.72618 | 123.05425 | 5090 ft | 106 kts | 147° |
| 2026-05-07 03:51 | 9.71961 | 123.05723 | 5022 ft | 101 kts | 146° |
| 2026-05-07 03:52 | 9.71290 | 123.05993 | 4962 ft | 108 kts | 147° |
| 2026-05-07 03:52 | 9.70568 | 123.06294 | 4868 ft | 116 kts | 146° |
| 2026-05-07 03:52 | 9.69834 | 123.06631 | 4766 ft | 115 kts | 146° |
| 2026-05-07 03:52 | 9.69107 | 123.06976 | 4680 ft | 117 kts | 146° |
| 2026-05-07 03:53 | 9.68370 | 123.07340 | 4593 ft | 122 kts | 145° |
| 2026-05-07 03:53 | 9.67578 | 123.07713 | 4493 ft | 126 kts | 146° |
| 2026-05-07 03:53 | 9.66822 | 123.08118 | 4386 ft | 122 kts | 141° |
| 2026-05-07 03:53 | 9.66111 | 123.08597 | 4293 ft | 121 kts | 138° |
| 2026-05-07 03:54 | 9.65412 | 123.09059 | 4194 ft | 122 kts | 139° |
| 2026-05-07 03:54 | 9.64674 | 123.09487 | 4091 ft | 122 kts | 147° |
| 2026-05-07 03:54 | 9.63880 | 123.09800 | 4007 ft | 125 kts | 149° |
| 2026-05-07 03:54 | 9.63048 | 123.10121 | 3910 ft | 130 kts | 150° |
| 2026-05-07 03:55 | 9.62201 | 123.10464 | 3808 ft | 132 kts | 149° |
| 2026-05-07 03:55 | 9.61333 | 123.10792 | 3709 ft | 134 kts | 150° |
| 2026-05-07 03:55 | 9.60456 | 123.11126 | 3616 ft | 135 kts | 149° |
| 2026-05-07 03:55 | 9.59572 | 123.11440 | 3519 ft | 134 kts | 150° |
| 2026-05-07 03:56 | 9.58695 | 123.11751 | 3424 ft | 133 kts | 150° |
| 2026-05-07 03:56 | 9.57826 | 123.12066 | 3331 ft | 132 kts | 151° |
| 2026-05-07 03:56 | 9.56990 | 123.12440 | 3243 ft | 131 kts | 147° |
| 2026-05-07 03:56 | 9.56164 | 123.12845 | 3140 ft | 132 kts | 145° |
| 2026-05-07 03:57 | 9.55331 | 123.13235 | 3041 ft | 131 kts | 143° |
| 2026-05-07 03:57 | 9.54582 | 123.13726 | 2942 ft | 127 kts | 137° |
| 2026-05-07 03:57 | 9.53913 | 123.14295 | 2840 ft | 124 kts | 133° |
| 2026-05-07 03:57 | 9.53276 | 123.14887 | 2753 ft | 125 kts | 132° |
| 2026-05-07 03:58 | 9.52623 | 123.15482 | 2655 ft | 127 kts | 131° |
| 2026-05-07 03:58 | 9.51963 | 123.16082 | 2558 ft | 127 kts | 133° |
| 2026-05-07 03:58 | 9.51306 | 123.16682 | 2506 ft | 127 kts | 131° |
| 2026-05-07 03:58 | 9.50648 | 123.17280 | 2502 ft | 127 kts | 131° |
| 2026-05-07 03:59 | 9.50005 | 123.17893 | 2502 ft | 126 kts | 131° |
| 2026-05-07 03:59 | 9.49378 | 123.18503 | 2495 ft | 124 kts | 131° |
| 2026-05-07 03:59 | 9.48754 | 123.19105 | 2500 ft | 123 kts | 131° |
| 2026-05-07 03:59 | 9.48138 | 123.19705 | 2505 ft | 123 kts | 131° |
| 2026-05-07 04:00 | 9.47532 | 123.20312 | 2506 ft | 126 kts | 131° |
| 2026-05-07 04:00 | 9.46912 | 123.20939 | 2506 ft | 126 kts | 130° |
| 2026-05-07 04:00 | 9.46263 | 123.21576 | 2508 ft | 135 kts | 131° |
| 2026-05-07 04:00 | 9.45505 | 123.22187 | 2509 ft | 145 kts | 144° |
| 2026-05-07 04:01 | 9.44599 | 123.22728 | 2502 ft | 158 kts | 146° |
| 2026-05-07 04:01 | 9.43648 | 123.23300 | 2479 ft | 157 kts | 146° |
| 2026-05-07 04:01 | 9.42748 | 123.23815 | 2491 ft | 141 kts | 148° |
| 2026-05-07 04:01 | 9.41900 | 123.24240 | 2487 ft | 133 kts | 149° |
| 2026-05-07 04:02 | 9.41084 | 123.24641 | 2493 ft | 129 kts | 150° |
| 2026-05-07 04:02 | 9.40284 | 123.25029 | 2494 ft | 126 kts | 150° |
| 2026-05-07 04:02 | 9.39478 | 123.25410 | 2501 ft | 129 kts | 150° |
| 2026-05-07 04:02 | 9.38654 | 123.25807 | 2506 ft | 133 kts | 150° |
| 2026-05-07 04:03 | 9.37820 | 123.26215 | 2498 ft | 135 kts | 150° |
| 2026-05-07 04:03 | 9.36985 | 123.26625 | 2492 ft | 130 kts | 146° |
| 2026-05-07 04:03 | 9.36286 | 123.27168 | 2491 ft | 124 kts | 134° |
| 2026-05-07 04:03 | 9.35646 | 123.27742 | 2486 ft | 121 kts | 132° |
| 2026-05-07 04:04 | 9.35042 | 123.28333 | 2492 ft | 121 kts | 130° |
| 2026-05-07 04:04 | 9.34433 | 123.28925 | 2494 ft | 122 kts | 131° |
| 2026-05-07 04:04 | 9.33730 | 123.29413 | 2490 ft | 125 kts | 150° |
| 2026-05-07 04:04 | 9.32900 | 123.29698 | 2492 ft | 127 kts | 160° |
| 2026-05-07 04:05 | 9.32034 | 123.29925 | 2473 ft | 130 kts | 164° |
| 2026-05-07 04:05 | 9.31127 | 123.30013 | 2473 ft | 130 kts | 170° |
| 2026-05-07 04:05 | 9.30234 | 123.30176 | 2434 ft | 131 kts | 156° |
| 2026-05-07 04:05 | 9.29443 | 123.30613 | 2432 ft | 128 kts | 139° |
| 2026-05-07 04:06 | 9.28799 | 123.31223 | 2388 ft | 126 kts | 126° |
| 2026-05-07 04:06 | 9.28277 | 123.31938 | 2312 ft | 126 kts | 120° |
| 2026-05-07 04:06 | 9.27819 | 123.32698 | 2229 ft | 127 kts | 116° |
| 2026-05-07 04:06 | 9.27377 | 123.33474 | 2226 ft | 129 kts | 116° |
| 2026-05-07 04:07 | 9.26957 | 123.34292 | 2210 ft | 132 kts | 111° |
| 2026-05-07 04:07 | 9.26582 | 123.35139 | 2267 ft | 134 kts | 112° |
| 2026-05-07 04:07 | 9.26186 | 123.35980 | 2329 ft | 132 kts | 112° |
| 2026-05-07 04:07 | 9.25756 | 123.36836 | 2147 ft | 137 kts | 115° |
| 2026-05-07 04:08 | 9.25254 | 123.37627 | 1971 ft | 134 kts | 126° |
| 2026-05-07 04:08 | 9.24659 | 123.38332 | 1830 ft | 129 kts | 127° |
| 2026-05-07 04:08 | 9.24069 | 123.39021 | 1727 ft | 130 kts | 126° |
| 2026-05-07 04:08 | 9.23481 | 123.39707 | 1730 ft | 127 kts | 126° |
| 2026-05-07 04:09 | 9.22955 | 123.40424 | 1641 ft | 127 kts | 122° |
| 2026-05-07 04:09 | 9.22389 | 123.41104 | 1462 ft | 126 kts | 123° |
| 2026-05-07 04:09 | 9.21862 | 123.41788 | 1266 ft | 120 kts | 123° |
| 2026-05-07 04:09 | 9.21372 | 123.42462 | 1157 ft | 115 kts | 122° |
| 2026-05-07 04:10 | 9.20915 | 123.43103 | 1192 ft | 106 kts | 119° |
| 2026-05-07 04:10 | 9.20494 | 123.43693 | 1140 ft | 103 kts | 119° |
| 2026-05-07 04:10 | 9.20044 | 123.44263 | 1010 ft | 104 kts | 122° |
| 2026-05-07 04:10 | 9.19657 | 123.44845 | 906 ft | 97 kts | 107° |
| 2026-05-07 04:11 | 9.19700 | 123.45437 | 605 ft | 81 kts | 52° |
| 2026-05-07 04:11 | 9.20012 | 123.45859 | 363 ft | 71 kts | 42° |
| 2026-05-07 04:11 | 9.20348 | 123.46207 | 211 ft | 69 kts | 39° |
| 2026-05-07 04:11 | 9.20704 | 123.46556 | 72 ft | 72 kts | 39° |
| 2026-05-07 04:12 | 9.21044 | 123.46886 | 19 ft | 57 kts | 44° |
| 2026-05-07 04:12 | 9.21268 | 123.47100 | 21 ft | 30 kts | 43° |
| 2026-05-07 04:12 | 9.21354 | 123.47189 | 22 ft | 11 kts | 86° |
| 2026-05-07 04:12 | 9.21305 | 123.47224 | 21 ft | 9 kts | 174° |
| 2026-05-07 04:13 | 9.21290 | 123.47237 | 21 ft | 0 kts | 42° |